sensor_id;sensor_type;location;lat;lon;timestamp;P1;durP1;ratioP1;P2;durP2;ratioP2
12451;SDS011;6291;48.924;12.204;2023-07-13T00:00:52;7.43;;;5.63;;
12451;SDS011;6291;48.924;12.204;2023-07-13T00:05:59;7.30;;;5.10;;
12451;SDS011;6291;48.924;12.204;2023-07-13T00:11:03;7.10;;;5.10;;
12451;SDS011;6291;48.924;12.204;2023-07-13T00:16:08;7.53;;;5.10;;
12451;SDS011;6291;48.924;12.204;2023-07-13T00:21:14;8.80;;;5.50;;
12451;SDS011;6291;48.924;12.204;2023-07-13T00:26:18;9.02;;;5.05;;
12451;SDS011;6291;48.924;12.204;2023-07-13T00:31:22;6.73;;;5.03;;
12451;SDS011;6291;48.924;12.204;2023-07-13T00:36:27;5.97;;;4.90;;
12451;SDS011;6291;48.924;12.204;2023-07-13T00:41:32;6.22;;;5.35;;
12451;SDS011;6291;48.924;12.204;2023-07-13T00:46:37;6.77;;;5.07;;
12451;SDS011;6291;48.924;12.204;2023-07-13T00:51:43;7.77;;;4.47;;
12451;SDS011;6291;48.924;12.204;2023-07-13T00:56:53;5.10;;;4.20;;
12451;SDS011;6291;48.924;12.204;2023-07-13T01:01:58;6.65;;;4.55;;
12451;SDS011;6291;48.924;12.204;2023-07-13T01:07:04;6.00;;;4.00;;
12451;SDS011;6291;48.924;12.204;2023-07-13T01:12:09;5.47;;;4.30;;
12451;SDS011;6291;48.924;12.204;2023-07-13T01:17:12;6.93;;;4.03;;
12451;SDS011;6291;48.924;12.204;2023-07-13T01:22:24;8.27;;;4.30;;
12451;SDS011;6291;48.924;12.204;2023-07-13T01:27:28;6.63;;;4.33;;
12451;SDS011;6291;48.924;12.204;2023-07-13T01:32:32;6.43;;;4.17;;
12451;SDS011;6291;48.924;12.204;2023-07-13T01:37:37;5.83;;;4.60;;
12451;SDS011;6291;48.924;12.204;2023-07-13T01:42:40;8.57;;;4.38;;
12451;SDS011;6291;48.924;12.204;2023-07-13T01:47:44;9.07;;;4.60;;
12451;SDS011;6291;48.924;12.204;2023-07-13T01:52:49;9.00;;;4.70;;
12451;SDS011;6291;48.924;12.204;2023-07-13T01:57:52;5.47;;;4.70;;
12451;SDS011;6291;48.924;12.204;2023-07-13T02:02:55;8.63;;;4.60;;
12451;SDS011;6291;48.924;12.204;2023-07-13T02:08:00;12.05;;;5.70;;
12451;SDS011;6291;48.924;12.204;2023-07-13T02:13:06;10.32;;;5.60;;
12451;SDS011;6291;48.924;12.204;2023-07-13T02:18:09;9.23;;;5.68;;
12451;SDS011;6291;48.924;12.204;2023-07-13T02:23:15;8.83;;;6.20;;
12451;SDS011;6291;48.924;12.204;2023-07-13T02:28:20;10.02;;;7.00;;
12451;SDS011;6291;48.924;12.204;2023-07-13T02:33:24;12.90;;;7.75;;
12451;SDS011;6291;48.924;12.204;2023-07-13T02:38:29;12.00;;;7.78;;
12451;SDS011;6291;48.924;12.204;2023-07-13T02:43:36;10.90;;;8.05;;
12451;SDS011;6291;48.924;12.204;2023-07-13T02:48:43;10.75;;;8.98;;
12451;SDS011;6291;48.924;12.204;2023-07-13T02:53:49;12.50;;;8.95;;
12451;SDS011;6291;48.924;12.204;2023-07-13T02:58:52;11.23;;;8.88;;
12451;SDS011;6291;48.924;12.204;2023-07-13T03:03:56;11.43;;;8.68;;
12451;SDS011;6291;48.924;12.204;2023-07-13T03:09:01;12.95;;;9.50;;
12451;SDS011;6291;48.924;12.204;2023-07-13T03:14:08;12.87;;;10.23;;
12451;SDS011;6291;48.924;12.204;2023-07-13T03:19:12;15.38;;;11.63;;
12451;SDS011;6291;48.924;12.204;2023-07-13T03:24:22;19.03;;;13.90;;
12451;SDS011;6291;48.924;12.204;2023-07-13T03:29:28;22.02;;;14.52;;
12451;SDS011;6291;48.924;12.204;2023-07-13T03:34:32;22.80;;;16.75;;
12451;SDS011;6291;48.924;12.204;2023-07-13T03:39:37;21.40;;;16.48;;
12451;SDS011;6291;48.924;12.204;2023-07-13T03:44:41;20.98;;;16.98;;
12451;SDS011;6291;48.924;12.204;2023-07-13T03:49:47;24.85;;;17.63;;
12451;SDS011;6291;48.924;12.204;2023-07-13T03:54:52;22.80;;;17.67;;
12451;SDS011;6291;48.924;12.204;2023-07-13T03:59:56;20.90;;;17.02;;
12451;SDS011;6291;48.924;12.204;2023-07-13T04:05:00;20.35;;;16.52;;
12451;SDS011;6291;48.924;12.204;2023-07-13T04:10:05;22.05;;;16.75;;
12451;SDS011;6291;48.924;12.204;2023-07-13T04:15:09;18.58;;;15.85;;
12451;SDS011;6291;48.924;12.204;2023-07-13T04:20:12;20.03;;;16.03;;
12451;SDS011;6291;48.924;12.204;2023-07-13T04:25:17;19.03;;;14.33;;
12451;SDS011;6291;48.924;12.204;2023-07-13T04:30:21;16.88;;;14.93;;
12451;SDS011;6291;48.924;12.204;2023-07-13T04:35:24;10.15;;;7.95;;
12451;SDS011;6291;48.924;12.204;2023-07-13T04:40:29;15.83;;;12.77;;
12451;SDS011;6291;48.924;12.204;2023-07-13T04:45:33;17.37;;;11.50;;
12451;SDS011;6291;48.924;12.204;2023-07-13T04:50:38;13.35;;;11.90;;
12451;SDS011;6291;48.924;12.204;2023-07-13T04:55:43;15.30;;;10.80;;
12451;SDS011;6291;48.924;12.204;2023-07-13T05:00:46;13.07;;;11.00;;
12451;SDS011;6291;48.924;12.204;2023-07-13T05:06:00;14.48;;;10.13;;
12451;SDS011;6291;48.924;12.204;2023-07-13T05:11:06;13.95;;;10.60;;
12451;SDS011;6291;48.924;12.204;2023-07-13T05:16:10;12.02;;;9.60;;
12451;SDS011;6291;48.924;12.204;2023-07-13T05:21:14;12.00;;;9.73;;
12451;SDS011;6291;48.924;12.204;2023-07-13T05:26:18;9.13;;;8.23;;
12451;SDS011;6291;48.924;12.204;2023-07-13T05:31:22;10.82;;;7.75;;
12451;SDS011;6291;48.924;12.204;2023-07-13T05:36:25;9.63;;;7.10;;
12451;SDS011;6291;48.924;12.204;2023-07-13T05:41:30;9.40;;;6.18;;
12451;SDS011;6291;48.924;12.204;2023-07-13T05:46:33;7.75;;;5.10;;
12451;SDS011;6291;48.924;12.204;2023-07-13T05:51:36;8.23;;;5.00;;
12451;SDS011;6291;48.924;12.204;2023-07-13T05:56:41;4.80;;;3.30;;
12451;SDS011;6291;48.924;12.204;2023-07-13T06:01:44;5.87;;;3.57;;
12451;SDS011;6291;48.924;12.204;2023-07-13T06:06:48;6.28;;;3.30;;
12451;SDS011;6291;48.924;12.204;2023-07-13T06:11:52;6.43;;;3.03;;
12451;SDS011;6291;48.924;12.204;2023-07-13T06:16:56;6.65;;;2.70;;
12451;SDS011;6291;48.924;12.204;2023-07-13T06:21:59;3.53;;;2.10;;
12451;SDS011;6291;48.924;12.204;2023-07-13T06:27:04;3.40;;;1.80;;
12451;SDS011;6291;48.924;12.204;2023-07-13T06:32:08;4.53;;;1.90;;
12451;SDS011;6291;48.924;12.204;2023-07-13T06:37:11;5.25;;;2.80;;
12451;SDS011;6291;48.924;12.204;2023-07-13T06:42:16;6.13;;;1.83;;
12451;SDS011;6291;48.924;12.204;2023-07-13T06:47:20;5.88;;;2.00;;
12451;SDS011;6291;48.924;12.204;2023-07-13T06:52:23;3.65;;;1.63;;
12451;SDS011;6291;48.924;12.204;2023-07-13T06:57:28;4.28;;;1.58;;
12451;SDS011;6291;48.924;12.204;2023-07-13T07:02:31;2.17;;;1.55;;
12451;SDS011;6291;48.924;12.204;2023-07-13T07:07:35;3.27;;;1.50;;
12451;SDS011;6291;48.924;12.204;2023-07-13T07:12:39;3.90;;;1.80;;
12451;SDS011;6291;48.924;12.204;2023-07-13T07:17:43;3.15;;;1.30;;
12451;SDS011;6291;48.924;12.204;2023-07-13T07:22:46;3.10;;;1.10;;
12451;SDS011;6291;48.924;12.204;2023-07-13T07:27:51;3.28;;;1.17;;
12451;SDS011;6291;48.924;12.204;2023-07-13T07:32:57;5.60;;;1.40;;
12451;SDS011;6291;48.924;12.204;2023-07-13T07:38:05;3.67;;;1.30;;
12451;SDS011;6291;48.924;12.204;2023-07-13T07:43:12;3.10;;;1.37;;
12451;SDS011;6291;48.924;12.204;2023-07-13T07:48:15;2.95;;;1.20;;
12451;SDS011;6291;48.924;12.204;2023-07-13T07:53:19;3.50;;;1.40;;
12451;SDS011;6291;48.924;12.204;2023-07-13T07:58:23;2.33;;;1.10;;
12451;SDS011;6291;48.924;12.204;2023-07-13T08:03:30;4.20;;;1.40;;
12451;SDS011;6291;48.924;12.204;2023-07-13T08:08:53;4.07;;;1.30;;
12451;SDS011;6291;48.924;12.204;2023-07-13T08:13:58;3.30;;;1.80;;
12451;SDS011;6291;48.924;12.204;2023-07-13T08:19:01;2.65;;;1.10;;
12451;SDS011;6291;48.924;12.204;2023-07-13T08:24:05;3.03;;;1.10;;
12451;SDS011;6291;48.924;12.204;2023-07-13T08:29:10;5.32;;;1.45;;
12451;SDS011;6291;48.924;12.204;2023-07-13T08:34:14;3.05;;;1.52;;
12451;SDS011;6291;48.924;12.204;2023-07-13T08:39:18;2.00;;;1.20;;
12451;SDS011;6291;48.924;12.204;2023-07-13T08:44:25;3.88;;;1.20;;
12451;SDS011;6291;48.924;12.204;2023-07-13T08:49:39;6.53;;;1.10;;
12451;SDS011;6291;48.924;12.204;2023-07-13T08:54:44;3.40;;;1.23;;
12451;SDS011;6291;48.924;12.204;2023-07-13T08:59:54;3.95;;;1.13;;
12451;SDS011;6291;48.924;12.204;2023-07-13T09:04:59;2.23;;;1.10;;
12451;SDS011;6291;48.924;12.204;2023-07-13T09:10:09;3.25;;;1.35;;
12451;SDS011;6291;48.924;12.204;2023-07-13T09:15:21;2.20;;;1.10;;
12451;SDS011;6291;48.924;12.204;2023-07-13T09:20:29;2.25;;;0.85;;
12451;SDS011;6291;48.924;12.204;2023-07-13T09:25:36;1.97;;;0.80;;
12451;SDS011;6291;48.924;12.204;2023-07-13T09:30:45;4.30;;;0.98;;
12451;SDS011;6291;48.924;12.204;2023-07-13T09:35:55;1.87;;;0.93;;
12451;SDS011;6291;48.924;12.204;2023-07-13T09:41:02;2.33;;;1.10;;
12451;SDS011;6291;48.924;12.204;2023-07-13T09:46:22;2.27;;;1.00;;
12451;SDS011;6291;48.924;12.204;2023-07-13T09:51:25;2.47;;;1.10;;
12451;SDS011;6291;48.924;12.204;2023-07-13T09:56:29;1.88;;;1.00;;
12451;SDS011;6291;48.924;12.204;2023-07-13T10:01:35;1.65;;;1.10;;
12451;SDS011;6291;48.924;12.204;2023-07-13T10:06:40;3.13;;;1.20;;
12451;SDS011;6291;48.924;12.204;2023-07-13T10:11:44;2.37;;;0.90;;
12451;SDS011;6291;48.924;12.204;2023-07-13T10:16:49;1.75;;;0.80;;
12451;SDS011;6291;48.924;12.204;2023-07-13T10:21:58;3.70;;;1.30;;
12451;SDS011;6291;48.924;12.204;2023-07-13T10:27:03;2.83;;;0.88;;
12451;SDS011;6291;48.924;12.204;2023-07-13T10:32:19;3.70;;;1.02;;
12451;SDS011;6291;48.924;12.204;2023-07-13T10:37:26;2.03;;;0.90;;
12451;SDS011;6291;48.924;12.204;2023-07-13T10:42:35;2.73;;;0.90;;
12451;SDS011;6291;48.924;12.204;2023-07-13T10:47:44;1.95;;;0.80;;
12451;SDS011;6291;48.924;12.204;2023-07-13T10:52:48;2.07;;;0.70;;
12451;SDS011;6291;48.924;12.204;2023-07-13T10:57:53;1.38;;;0.80;;
12451;SDS011;6291;48.924;12.204;2023-07-13T11:02:58;2.22;;;0.82;;
12451;SDS011;6291;48.924;12.204;2023-07-13T11:08:04;1.40;;;0.90;;
12451;SDS011;6291;48.924;12.204;2023-07-13T11:18:41;3.97;;;1.10;;
12451;SDS011;6291;48.924;12.204;2023-07-13T11:23:51;2.45;;;0.93;;
12451;SDS011;6291;48.924;12.204;2023-07-13T11:28:56;3.50;;;0.80;;
12451;SDS011;6291;48.924;12.204;2023-07-13T11:34:01;2.22;;;0.70;;
12451;SDS011;6291;48.924;12.204;2023-07-13T11:39:10;3.17;;;0.70;;
12451;SDS011;6291;48.924;12.204;2023-07-13T11:44:20;1.15;;;0.80;;
12451;SDS011;6291;48.924;12.204;2023-07-13T11:49:26;1.75;;;0.80;;
12451;SDS011;6291;48.924;12.204;2023-07-13T11:54:41;2.33;;;0.93;;
12451;SDS011;6291;48.924;12.204;2023-07-13T11:59:52;2.22;;;0.82;;
12451;SDS011;6291;48.924;12.204;2023-07-13T12:04:59;2.60;;;0.90;;
12451;SDS011;6291;48.924;12.204;2023-07-13T12:10:13;1.53;;;0.80;;
12451;SDS011;6291;48.924;12.204;2023-07-13T12:15:21;2.00;;;1.00;;
12451;SDS011;6291;48.924;12.204;2023-07-13T12:20:30;2.53;;;0.80;;
12451;SDS011;6291;48.924;12.204;2023-07-13T12:25:39;2.35;;;0.80;;
12451;SDS011;6291;48.924;12.204;2023-07-13T12:30:47;1.90;;;0.88;;
12451;SDS011;6291;48.924;12.204;2023-07-13T12:35:53;1.30;;;0.75;;
12451;SDS011;6291;48.924;12.204;2023-07-13T12:40:58;2.10;;;0.80;;
12451;SDS011;6291;48.924;12.204;2023-07-13T12:46:13;1.38;;;0.63;;
12451;SDS011;6291;48.924;12.204;2023-07-13T12:51:22;1.67;;;0.90;;
12451;SDS011;6291;48.924;12.204;2023-07-13T12:56:28;1.70;;;0.80;;
12451;SDS011;6291;48.924;12.204;2023-07-13T13:01:32;1.50;;;0.90;;
12451;SDS011;6291;48.924;12.204;2023-07-13T13:06:40;1.30;;;0.82;;
12451;SDS011;6291;48.924;12.204;2023-07-13T13:11:44;2.20;;;0.80;;
12451;SDS011;6291;48.924;12.204;2023-07-13T13:16:48;1.63;;;0.87;;
12451;SDS011;6291;48.924;12.204;2023-07-13T13:21:56;2.20;;;0.90;;
12451;SDS011;6291;48.924;12.204;2023-07-13T13:27:01;1.75;;;0.80;;
12451;SDS011;6291;48.924;12.204;2023-07-13T13:32:04;2.17;;;0.90;;
12451;SDS011;6291;48.924;12.204;2023-07-13T13:37:17;1.90;;;0.80;;
12451;SDS011;6291;48.924;12.204;2023-07-13T13:42:22;1.30;;;0.80;;
12451;SDS011;6291;48.924;12.204;2023-07-13T13:47:29;2.03;;;0.82;;
12451;SDS011;6291;48.924;12.204;2023-07-13T13:52:36;1.93;;;0.70;;
12451;SDS011;6291;48.924;12.204;2023-07-13T13:57:39;2.05;;;0.85;;
12451;SDS011;6291;48.924;12.204;2023-07-13T14:02:43;2.72;;;1.00;;
12451;SDS011;6291;48.924;12.204;2023-07-13T14:07:50;1.17;;;0.70;;
12451;SDS011;6291;48.924;12.204;2023-07-13T14:12:54;4.32;;;1.10;;
12451;SDS011;6291;48.924;12.204;2023-07-13T14:17:59;2.50;;;0.87;;
12451;SDS011;6291;48.924;12.204;2023-07-13T14:23:04;1.10;;;0.70;;
12451;SDS011;6291;48.924;12.204;2023-07-13T14:28:13;1.80;;;0.80;;
12451;SDS011;6291;48.924;12.204;2023-07-13T14:33:22;2.00;;;0.77;;
12451;SDS011;6291;48.924;12.204;2023-07-13T14:38:27;0.88;;;0.68;;
12451;SDS011;6291;48.924;12.204;2023-07-13T14:43:31;2.03;;;0.75;;
12451;SDS011;6291;48.924;12.204;2023-07-13T14:48:34;1.80;;;0.75;;
12451;SDS011;6291;48.924;12.204;2023-07-13T14:53:39;1.30;;;0.60;;
12451;SDS011;6291;48.924;12.204;2023-07-13T14:58:42;1.90;;;0.80;;
12451;SDS011;6291;48.924;12.204;2023-07-13T15:03:47;1.85;;;0.80;;
12451;SDS011;6291;48.924;12.204;2023-07-13T15:08:54;2.13;;;0.90;;
12451;SDS011;6291;48.924;12.204;2023-07-13T15:13:58;1.50;;;0.70;;
12451;SDS011;6291;48.924;12.204;2023-07-13T15:19:01;3.40;;;0.90;;
12451;SDS011;6291;48.924;12.204;2023-07-13T15:24:07;2.58;;;1.17;;
12451;SDS011;6291;48.924;12.204;2023-07-13T15:29:12;2.70;;;0.90;;
12451;SDS011;6291;48.924;12.204;2023-07-13T15:34:16;1.92;;;0.85;;
12451;SDS011;6291;48.924;12.204;2023-07-13T15:39:27;2.03;;;0.93;;
12451;SDS011;6291;48.924;12.204;2023-07-13T15:44:32;1.40;;;0.75;;
12451;SDS011;6291;48.924;12.204;2023-07-13T15:49:36;2.40;;;0.85;;
12451;SDS011;6291;48.924;12.204;2023-07-13T15:54:42;2.33;;;0.82;;
12451;SDS011;6291;48.924;12.204;2023-07-13T15:59:45;1.48;;;0.80;;
12451;SDS011;6291;48.924;12.204;2023-07-13T16:04:49;1.97;;;0.70;;
12451;SDS011;6291;48.924;12.204;2023-07-13T16:09:54;2.33;;;1.00;;
12451;SDS011;6291;48.924;12.204;2023-07-13T16:14:57;1.52;;;0.80;;
12451;SDS011;6291;48.924;12.204;2023-07-13T16:20:03;1.42;;;0.90;;
12451;SDS011;6291;48.924;12.204;2023-07-13T16:25:16;1.73;;;0.77;;
12451;SDS011;6291;48.924;12.204;2023-07-13T16:30:22;1.90;;;0.77;;
12451;SDS011;6291;48.924;12.204;2023-07-13T16:35:28;2.30;;;0.80;;
12451;SDS011;6291;48.924;12.204;2023-07-13T16:40:37;3.00;;;1.17;;
12451;SDS011;6291;48.924;12.204;2023-07-13T16:45:40;2.00;;;1.00;;
12451;SDS011;6291;48.924;12.204;2023-07-13T16:50:51;2.67;;;1.00;;
12451;SDS011;6291;48.924;12.204;2023-07-13T16:55:59;2.35;;;1.10;;
12451;SDS011;6291;48.924;12.204;2023-07-13T17:01:08;3.80;;;1.00;;
12451;SDS011;6291;48.924;12.204;2023-07-13T17:06:18;2.25;;;0.90;;
12451;SDS011;6291;48.924;12.204;2023-07-13T17:11:27;4.15;;;1.00;;
12451;SDS011;6291;48.924;12.204;2023-07-13T17:16:31;2.40;;;0.90;;
12451;SDS011;6291;48.924;12.204;2023-07-13T17:21:36;3.00;;;0.93;;
12451;SDS011;6291;48.924;12.204;2023-07-13T17:26:41;2.22;;;1.73;;
12451;SDS011;6291;48.924;12.204;2023-07-13T17:31:45;1.57;;;0.97;;
12451;SDS011;6291;48.924;12.204;2023-07-13T17:36:51;4.07;;;0.93;;
12451;SDS011;6291;48.924;12.204;2023-07-13T17:41:57;1.90;;;0.80;;
12451;SDS011;6291;48.924;12.204;2023-07-13T17:47:00;2.05;;;0.95;;
12451;SDS011;6291;48.924;12.204;2023-07-13T17:52:07;4.20;;;1.10;;
12451;SDS011;6291;48.924;12.204;2023-07-13T17:57:12;3.20;;;1.10;;
12451;SDS011;6291;48.924;12.204;2023-07-13T18:02:16;2.43;;;0.90;;
12451;SDS011;6291;48.924;12.204;2023-07-13T18:07:23;3.33;;;1.90;;
12451;SDS011;6291;48.924;12.204;2023-07-13T18:12:31;3.87;;;0.90;;
12451;SDS011;6291;48.924;12.204;2023-07-13T18:17:36;2.03;;;0.88;;
12451;SDS011;6291;48.924;12.204;2023-07-13T18:22:39;1.58;;;1.00;;
12451;SDS011;6291;48.924;12.204;2023-07-13T18:27:44;4.07;;;1.27;;
12451;SDS011;6291;48.924;12.204;2023-07-13T18:32:51;2.63;;;1.00;;
12451;SDS011;6291;48.924;12.204;2023-07-13T18:37:57;2.03;;;0.90;;
12451;SDS011;6291;48.924;12.204;2023-07-13T18:43:03;2.05;;;0.88;;
12451;SDS011;6291;48.924;12.204;2023-07-13T18:48:09;2.13;;;1.00;;
12451;SDS011;6291;48.924;12.204;2023-07-13T18:53:15;2.70;;;1.08;;
12451;SDS011;6291;48.924;12.204;2023-07-13T18:58:21;2.97;;;1.00;;
12451;SDS011;6291;48.924;12.204;2023-07-13T19:03:30;2.60;;;1.10;;
12451;SDS011;6291;48.924;12.204;2023-07-13T19:08:36;2.30;;;0.90;;
12451;SDS011;6291;48.924;12.204;2023-07-13T19:13:43;2.17;;;1.00;;
12451;SDS011;6291;48.924;12.204;2023-07-13T19:18:46;3.30;;;1.15;;
12451;SDS011;6291;48.924;12.204;2023-07-13T19:23:50;1.77;;;1.07;;
12451;SDS011;6291;48.924;12.204;2023-07-13T19:28:56;3.78;;;1.55;;
12451;SDS011;6291;48.924;12.204;2023-07-13T19:34:12;2.53;;;1.30;;
12451;SDS011;6291;48.924;12.204;2023-07-13T19:39:22;3.55;;;1.20;;
12451;SDS011;6291;48.924;12.204;2023-07-13T19:44:31;1.87;;;1.10;;
12451;SDS011;6291;48.924;12.204;2023-07-13T19:49:34;2.50;;;1.17;;
12451;SDS011;6291;48.924;12.204;2023-07-13T19:54:39;2.90;;;1.17;;
12451;SDS011;6291;48.924;12.204;2023-07-13T19:59:45;2.97;;;1.17;;
12451;SDS011;6291;48.924;12.204;2023-07-13T20:04:54;2.92;;;1.25;;
12451;SDS011;6291;48.924;12.204;2023-07-13T20:10:14;2.50;;;1.02;;
12451;SDS011;6291;48.924;12.204;2023-07-13T20:15:25;3.50;;;1.10;;
12451;SDS011;6291;48.924;12.204;2023-07-13T20:20:31;2.85;;;1.30;;
12451;SDS011;6291;48.924;12.204;2023-07-13T20:25:36;2.95;;;1.23;;
12451;SDS011;6291;48.924;12.204;2023-07-13T20:30:42;2.20;;;1.03;;
12451;SDS011;6291;48.924;12.204;2023-07-13T20:35:48;2.53;;;1.25;;
12451;SDS011;6291;48.924;12.204;2023-07-13T20:40:52;3.22;;;1.17;;
12451;SDS011;6291;48.924;12.204;2023-07-13T20:45:57;2.90;;;1.30;;
12451;SDS011;6291;48.924;12.204;2023-07-13T20:51:02;1.50;;;1.00;;
12451;SDS011;6291;48.924;12.204;2023-07-13T20:56:12;2.20;;;1.20;;
12451;SDS011;6291;48.924;12.204;2023-07-13T21:01:18;2.53;;;1.65;;
12451;SDS011;6291;48.924;12.204;2023-07-13T21:06:25;2.40;;;1.10;;
12451;SDS011;6291;48.924;12.204;2023-07-13T21:11:30;1.77;;;1.27;;
12451;SDS011;6291;48.924;12.204;2023-07-13T21:16:35;1.97;;;1.10;;
12451;SDS011;6291;48.924;12.204;2023-07-13T21:21:39;2.63;;;1.20;;
12451;SDS011;6291;48.924;12.204;2023-07-13T21:26:42;2.80;;;1.10;;
12451;SDS011;6291;48.924;12.204;2023-07-13T21:31:47;2.00;;;1.20;;
12451;SDS011;6291;48.924;12.204;2023-07-13T21:36:52;1.77;;;1.20;;
12451;SDS011;6291;48.924;12.204;2023-07-13T21:42:00;2.83;;;1.20;;
12451;SDS011;6291;48.924;12.204;2023-07-13T21:47:05;2.97;;;1.10;;
12451;SDS011;6291;48.924;12.204;2023-07-13T21:52:12;1.88;;;1.02;;
12451;SDS011;6291;48.924;12.204;2023-07-13T21:57:18;1.48;;;1.05;;
12451;SDS011;6291;48.924;12.204;2023-07-13T22:02:23;2.00;;;1.23;;
12451;SDS011;6291;48.924;12.204;2023-07-13T22:07:27;2.08;;;1.13;;
12451;SDS011;6291;48.924;12.204;2023-07-13T22:12:31;1.00;;;0.90;;
12451;SDS011;6291;48.924;12.204;2023-07-13T22:17:35;3.10;;;1.13;;
12451;SDS011;6291;48.924;12.204;2023-07-13T22:22:39;2.73;;;1.20;;
12451;SDS011;6291;48.924;12.204;2023-07-13T22:27:43;3.15;;;1.25;;
12451;SDS011;6291;48.924;12.204;2023-07-13T22:32:48;2.80;;;1.50;;
12451;SDS011;6291;48.924;12.204;2023-07-13T22:37:56;2.05;;;1.20;;
12451;SDS011;6291;48.924;12.204;2023-07-13T22:43:00;2.33;;;1.30;;
12451;SDS011;6291;48.924;12.204;2023-07-13T22:48:07;2.87;;;1.30;;
12451;SDS011;6291;48.924;12.204;2023-07-13T22:53:17;2.43;;;1.30;;
12451;SDS011;6291;48.924;12.204;2023-07-13T22:58:26;2.30;;;1.20;;
12451;SDS011;6291;48.924;12.204;2023-07-13T23:03:31;2.90;;;1.10;;
12451;SDS011;6291;48.924;12.204;2023-07-13T23:08:37;2.05;;;1.33;;
12451;SDS011;6291;48.924;12.204;2023-07-13T23:13:40;2.15;;;1.40;;
12451;SDS011;6291;48.924;12.204;2023-07-13T23:18:45;4.10;;;1.30;;
12451;SDS011;6291;48.924;12.204;2023-07-13T23:23:50;2.45;;;1.38;;
12451;SDS011;6291;48.924;12.204;2023-07-13T23:28:54;3.33;;;1.25;;
12451;SDS011;6291;48.924;12.204;2023-07-13T23:34:01;3.33;;;1.33;;
12451;SDS011;6291;48.924;12.204;2023-07-13T23:39:09;2.33;;;1.10;;
12451;SDS011;6291;48.924;12.204;2023-07-13T23:44:15;2.30;;;1.50;;
12451;SDS011;6291;48.924;12.204;2023-07-13T23:49:21;2.58;;;1.40;;
12451;SDS011;6291;48.924;12.204;2023-07-13T23:54:26;1.52;;;1.20;;
12451;SDS011;6291;48.924;12.204;2023-07-13T23:59:32;2.50;;;1.23;;
